Time,TemperatureF,DewpointF,PressureIn,WindDirection,WindDirectionDegrees,WindSpeedMPH,WindSpeedGustMPH,Humidity,HourlyPrecipIn,Conditions,Clouds,dailyrainin,SoftwareType,DateUTC
2013-01-05 00:08:00,33.6,28.0,29.84,WSW,250,3.0,-999.0,80,-99.99,,,0.00,weatherlink.com 1.10,2013-01-05 05:08:00,
2013-01-05 00:23:00,33.9,27.0,29.84,West,272,3.0,-999.0,77,-99.99,,,0.00,weatherlink.com 1.10,2013-01-05 05:23:00,
2013-01-05 00:38:00,34.4,27.0,29.83,WNW,292,11.0,-999.0,74,-99.99,,,0.00,weatherlink.com 1.10,2013-01-05 05:38:00,
2013-01-05 00:53:00,34.3,26.0,29.83,WNW,297,7.0,-999.0,73,-99.99,,,0.00,weatherlink.com 1.10,2013-01-05 05:53:00,
2013-01-05 01:08:00,34.1,26.0,29.82,SW,233,17.0,-999.0,73,-99.99,,,0.00,weatherlink.com 1.10,2013-01-05 06:08:00,
2013-01-05 01:23:00,34.3,26.0,29.82,West,268,11.0,-999.0,72,-99.99,,,0.00,weatherlink.com 1.10,2013-01-05 06:23:00,
2013-01-05 01:38:00,34.7,27.0,29.83,WNW,284,9.0,-999.0,72,-99.99,,,0.00,weatherlink.com 1.10,2013-01-05 06:38:00,
2013-01-05 01:53:00,34.6,27.0,29.84,SW,236,16.0,-999.0,73,-99.99,,,0.00,weatherlink.com 1.10,2013-01-05 06:53:00,
2013-01-05 02:08:00,34.6,27.0,29.85,West,262,12.0,-999.0,73,-99.99,,,0.00,weatherlink.com 1.10,2013-01-05 07:08:00,
2013-01-05 02:23:00,34.6,27.0,29.86,West,273,7.0,-999.0,74,-99.99,,,0.00,weatherlink.com 1.10,2013-01-05 07:23:00,
2013-01-05 02:38:00,34.7,27.0,29.87,WSW,246,6.0,-999.0,73,-99.99,,,0.00,weatherlink.com 1.10,2013-01-05 07:38:00,
2013-01-05 02:53:00,34.9,27.0,29.87,WSW,248,6.0,-999.0,73,-99.99,,,0.00,weatherlink.com 1.10,2013-01-05 07:53:00,
2013-01-05 03:08:00,35.2,27.0,29.88,West,271,10.0,-999.0,71,-99.99,,,0.00,weatherlink.com 1.10,2013-01-05 08:08:00,
2013-01-05 03:23:00,36.0,26.0,29.88,WNW,293,7.0,-999.0,68,-99.99,,,0.00,weatherlink.com 1.10,2013-01-05 08:23:00,
2013-01-05 03:38:00,36.2,26.0,29.89,WSW,252,5.0,-999.0,67,-99.99,,,0.00,weatherlink.com 1.10,2013-01-05 08:38:00,
2013-01-05 03:53:00,36.3,26.0,29.89,WSW,257,8.0,-999.0,67,-99.99,,,0.00,weatherlink.com 1.10,2013-01-05 08:53:00,
2013-01-05 04:08:00,36.3,26.0,29.89,West,262,10.0,-999.0,67,-99.99,,,0.00,weatherlink.com 1.10,2013-01-05 09:08:00,
2013-01-05 04:23:00,36.3,26.0,29.90,West,269,3.0,-999.0,66,-99.99,,,0.00,weatherlink.com 1.10,2013-01-05 09:23:00,
2013-01-05 04:38:00,36.2,26.0,29.91,West,268,12.0,-999.0,66,-99.99,,,0.00,weatherlink.com 1.10,2013-01-05 09:38:00,
2013-01-05 04:53:00,36.1,26.0,29.92,West,262,4.0,-999.0,66,-99.99,,,0.00,weatherlink.com 1.10,2013-01-05 09:53:00,
2013-01-05 05:08:00,35.8,25.0,29.93,NNW,345,1.0,-999.0,66,-99.99,,,0.00,weatherlink.com 1.10,2013-01-05 10:08:00,
2013-01-05 05:23:00,35.2,26.0,29.94,NNW,345,0.0,-999.0,69,-99.99,,,0.00,weatherlink.com 1.10,2013-01-05 10:23:00,
2013-01-05 05:38:00,34.5,26.0,29.95,NNW,345,1.0,-999.0,71,-99.99,,,0.00,weatherlink.com 1.10,2013-01-05 10:38:00,
2013-01-05 05:53:00,34.2,26.0,29.97,North,1,4.0,-999.0,72,-99.99,,,0.00,weatherlink.com 1.10,2013-01-05 10:53:00,
2013-01-05 06:08:00,34.4,26.0,29.99,NNE,27,10.0,-999.0,72,-99.99,,,0.00,weatherlink.com 1.10,2013-01-05 11:08:00,
2013-01-05 06:23:00,33.5,25.0,30.01,North,9,7.0,-999.0,72,-99.99,,,0.00,weatherlink.com 1.10,2013-01-05 11:23:00,
2013-01-05 06:38:00,33.2,22.0,30.03,North,0,6.0,-999.0,63,-99.99,,,0.00,weatherlink.com 1.10,2013-01-05 11:38:00,
2013-01-05 06:53:00,32.9,21.0,30.04,North,354,10.0,-999.0,61,-99.99,,,0.00,weatherlink.com 1.10,2013-01-05 11:53:00,
2013-01-05 07:08:00,32.8,20.0,30.05,North,349,9.0,-999.0,60,-99.99,,,0.00,weatherlink.com 1.10,2013-01-05 12:08:00,
2013-01-05 07:23:00,32.6,20.0,30.05,North,355,13.0,-999.0,59,-99.99,,,0.00,weatherlink.com 1.10,2013-01-05 12:23:00,
2013-01-05 07:38:00,32.1,19.0,30.06,NNW,346,11.0,-999.0,59,-99.99,,,0.00,weatherlink.com 1.10,2013-01-05 12:38:00,
2013-01-05 07:54:00,31.3,19.0,30.08,North,359,5.0,-999.0,60,-99.99,,,0.00,weatherlink.com 1.10,2013-01-05 12:54:00,
2013-01-05 08:09:00,31.5,19.0,30.10,North,0,4.0,-999.0,59,-99.99,,,0.00,weatherlink.com 1.10,2013-01-05 13:09:00,
2013-01-05 08:24:00,32.0,19.0,30.11,NE,41,6.0,-999.0,60,-99.99,,,0.00,weatherlink.com 1.10,2013-01-05 13:24:00,
2013-01-05 08:39:00,32.0,19.0,30.13,NNE,13,6.0,-999.0,59,-99.99,,,0.00,weatherlink.com 1.10,2013-01-05 13:39:00,
2013-01-05 08:54:00,31.3,18.0,30.14,North,0,9.0,-999.0,59,-99.99,,,0.00,weatherlink.com 1.10,2013-01-05 13:54:00,
2013-01-05 09:09:00,30.7,19.0,30.15,NNE,26,12.0,-999.0,62,-99.99,,,0.00,weatherlink.com 1.10,2013-01-05 14:09:00,
2013-01-05 09:24:00,30.3,19.0,30.16,NNE,28,9.0,-999.0,62,-99.99,,,0.00,weatherlink.com 1.10,2013-01-05 14:24:00,
2013-01-05 09:39:00,30.2,18.0,30.17,North,359,10.0,-999.0,62,-99.99,,,0.00,weatherlink.com 1.10,2013-01-05 14:39:00,
2013-01-05 09:54:00,31.7,19.0,30.18,North,10,8.0,-999.0,60,-99.99,,,0.00,weatherlink.com 1.10,2013-01-05 14:54:00,
2013-01-05 10:09:00,31.8,19.0,30.19,North,0,7.0,-999.0,59,-99.99,,,0.00,weatherlink.com 1.10,2013-01-05 15:09:00,
2013-01-05 10:24:00,30.9,19.0,30.20,NNE,14,9.0,-999.0,61,-99.99,,,0.00,weatherlink.com 1.10,2013-01-05 15:24:00,
2013-01-05 10:39:00,30.5,18.0,30.20,North,11,9.0,-999.0,60,-99.99,,,0.00,weatherlink.com 1.10,2013-01-05 15:39:00,
2013-01-05 10:54:00,30.8,18.0,30.21,North,1,12.0,-999.0,60,-99.99,,,0.00,weatherlink.com 1.10,2013-01-05 15:54:00,
2013-01-05 11:09:00,31.1,18.0,30.20,NNW,344,11.0,-999.0,59,-99.99,,,0.00,weatherlink.com 1.10,2013-01-05 16:09:00,
2013-01-05 11:24:00,30.5,18.0,30.21,North,356,10.0,-999.0,60,-99.99,,,0.00,weatherlink.com 1.10,2013-01-05 16:24:00,
2013-01-05 11:39:00,29.7,20.0,30.22,NNE,18,11.0,-999.0,66,-99.99,,,0.00,weatherlink.com 1.10,2013-01-05 16:39:00,
2013-01-05 11:54:00,29.5,20.0,30.23,NNE,18,5.0,-999.0,67,-99.99,,,0.00,weatherlink.com 1.10,2013-01-05 16:54:00,
2013-01-05 12:09:00,29.3,20.0,30.22,North,4,4.0,-999.0,67,-99.99,,,0.00,weatherlink.com 1.10,2013-01-05 17:09:00,
2013-01-05 12:24:00,28.5,18.0,30.22,NNE,21,7.0,-999.0,66,-99.99,,,0.00,weatherlink.com 1.10,2013-01-05 17:24:00,
2013-01-05 12:39:00,29.3,19.0,30.23,North,6,5.0,-999.0,65,-99.99,,,0.00,weatherlink.com 1.10,2013-01-05 17:39:00,
2013-01-05 12:54:00,29.0,19.0,30.23,NNW,340,2.0,-999.0,65,-99.99,,,0.00,weatherlink.com 1.10,2013-01-05 17:54:00,
2013-01-05 13:09:00,29.6,19.0,30.24,North,359,7.0,-999.0,64,-99.99,,,0.00,weatherlink.com 1.10,2013-01-05 18:09:00,
2013-01-05 13:24:00,30.0,19.0,30.23,NNE,16,4.0,-999.0,63,-99.99,,,0.00,weatherlink.com 1.10,2013-01-05 18:24:00,
2013-01-05 13:39:00,30.2,18.0,30.23,NNE,18,2.0,-999.0,62,-99.99,,,0.00,weatherlink.com 1.10,2013-01-05 18:39:00,
2013-01-05 13:54:00,29.7,18.0,30.22,NNE,12,6.0,-999.0,62,-99.99,,,0.00,weatherlink.com 1.10,2013-01-05 18:54:00,
2013-01-05 14:09:00,29.7,18.0,30.23,North,6,3.0,-999.0,63,-99.99,,,0.00,weatherlink.com 1.10,2013-01-05 19:09:00,
2013-01-05 14:24:00,29.4,18.0,30.22,NNE,29,4.0,-999.0,62,-99.99,,,0.00,weatherlink.com 1.10,2013-01-05 19:24:00,
2013-01-05 14:39:00,29.2,18.0,30.22,NNE,23,2.0,-999.0,62,-99.99,,,0.00,weatherlink.com 1.10,2013-01-05 19:39:00,
2013-01-05 14:54:00,28.7,17.0,30.22,NNE,15,3.0,-999.0,63,-99.99,,,0.00,weatherlink.com 1.10,2013-01-05 19:54:00,
2013-01-05 15:09:00,28.5,18.0,30.22,North,11,5.0,-999.0,64,-99.99,,,0.00,weatherlink.com 1.10,2013-01-05 20:09:00,
2013-01-05 15:24:00,27.6,17.0,30.22,North,5,4.0,-999.0,64,-99.99,,,0.00,weatherlink.com 1.10,2013-01-05 20:24:00,
2013-01-05 15:39:00,26.7,17.0,30.22,North,1,5.0,-999.0,66,-99.99,,,0.00,weatherlink.com 1.10,2013-01-05 20:39:00,
2013-01-05 15:54:00,26.2,17.0,30.22,North,358,4.0,-999.0,67,-99.99,,,0.00,weatherlink.com 1.10,2013-01-05 20:54:00,
2013-01-05 16:09:00,26.6,17.0,30.23,NNW,346,1.0,-999.0,67,-99.99,,,0.00,weatherlink.com 1.10,2013-01-05 21:09:00,
2013-01-05 16:24:00,26.3,16.0,30.23,NNW,346,1.0,-999.0,66,-99.99,,,0.00,weatherlink.com 1.10,2013-01-05 21:24:00,
2013-01-05 16:39:00,25.2,16.0,30.22,NNW,340,0.0,-999.0,68,-99.99,,,0.00,weatherlink.com 1.10,2013-01-05 21:39:00,
2013-01-05 16:54:00,24.8,16.0,30.23,WNW,285,1.0,-999.0,70,-99.99,,,0.00,weatherlink.com 1.10,2013-01-05 21:54:00,
2013-01-05 17:09:00,24.9,16.0,30.24,West,272,1.0,-999.0,69,-99.99,,,0.00,weatherlink.com 1.10,2013-01-05 22:09:00,
2013-01-05 17:24:00,24.2,16.0,30.24,West,271,1.0,-999.0,70,-99.99,,,0.00,weatherlink.com 1.10,2013-01-05 22:24:00,
2013-01-05 17:39:00,23.1,15.0,30.24,West,262,0.0,-999.0,71,-99.99,,,0.00,weatherlink.com 1.10,2013-01-05 22:39:00,
2013-01-05 17:54:00,21.5,13.0,30.24,WNW,290,0.0,-999.0,71,-99.99,,,0.00,weatherlink.com 1.10,2013-01-05 22:54:00,
2013-01-05 18:09:00,20.2,14.0,30.24,NW,305,0.0,-999.0,77,-99.99,,,0.00,weatherlink.com 1.10,2013-01-05 23:09:00,
2013-01-05 18:24:00,21.5,14.0,30.25,NW,318,3.0,-999.0,73,-99.99,,,0.00,weatherlink.com 1.10,2013-01-05 23:24:00,
2013-01-05 18:39:00,20.0,13.0,30.26,NW,320,2.0,-999.0,73,-99.99,,,0.00,weatherlink.com 1.10,2013-01-05 23:39:00,
2013-01-05 18:55:00,20.7,15.0,30.25,WSW,243,0.0,-999.0,77,-99.99,,,0.00,weatherlink.com 1.10,2013-01-05 23:55:00,
2013-01-05 19:10:00,18.6,12.0,30.25,WSW,244,0.0,-999.0,74,-99.99,,,0.00,weatherlink.com 1.10,2013-01-06 00:10:00,
2013-01-05 19:25:00,15.9,12.0,30.25,SW,232,2.0,-999.0,83,-99.99,,,0.00,weatherlink.com 1.10,2013-01-06 00:25:00,
2013-01-05 19:40:00,15.0,11.0,30.24,WSW,252,0.0,-999.0,83,-99.99,,,0.00,weatherlink.com 1.10,2013-01-06 00:40:00,
2013-01-05 19:55:00,14.1,10.0,30.25,WSW,255,0.0,-999.0,84,-99.99,,,0.00,weatherlink.com 1.10,2013-01-06 00:55:00,
2013-01-05 20:10:00,15.9,11.0,30.25,WSW,255,0.0,-999.0,82,-99.99,,,0.00,weatherlink.com 1.10,2013-01-06 01:10:00,
2013-01-05 20:25:00,15.2,11.0,30.24,WSW,255,0.0,-999.0,82,-99.99,,,0.00,weatherlink.com 1.10,2013-01-06 01:25:00,
2013-01-05 20:40:00,14.1,10.0,30.25,WNW,291,2.0,-999.0,82,-99.99,,,0.00,weatherlink.com 1.10,2013-01-06 01:40:00,
2013-01-05 20:55:00,12.5,9.0,30.24,West,263,1.0,-999.0,87,-99.99,,,0.00,weatherlink.com 1.10,2013-01-06 01:55:00,
2013-01-05 21:10:00,12.1,9.0,30.25,West,263,0.0,-999.0,86,-99.99,,,0.00,weatherlink.com 1.10,2013-01-06 02:10:00,
2013-01-05 21:25:00,11.5,9.0,30.23,West,263,0.0,-999.0,88,-99.99,,,0.00,weatherlink.com 1.10,2013-01-06 02:25:00,
2013-01-05 21:40:00,11.4,8.0,30.23,West,264,0.0,-999.0,87,-99.99,,,0.00,weatherlink.com 1.10,2013-01-06 02:40:00,
2013-01-05 21:55:00,11.3,9.0,30.23,West,264,0.0,-999.0,88,-99.99,,,0.00,weatherlink.com 1.10,2013-01-06 02:55:00,
2013-01-05 22:10:00,13.2,11.0,30.22,West,264,3.0,-999.0,92,-99.99,,,0.00,weatherlink.com 1.10,2013-01-06 03:10:00,
2013-01-05 22:25:00,14.1,11.0,30.21,West,264,0.0,-999.0,87,-99.99,,,0.00,weatherlink.com 1.10,2013-01-06 03:25:00,
2013-01-05 22:40:00,14.9,12.0,30.22,West,264,1.0,-999.0,87,-99.99,,,0.00,weatherlink.com 1.10,2013-01-06 03:40:00,
2013-01-05 22:55:00,14.6,11.0,30.23,West,264,1.0,-999.0,84,-99.99,,,0.00,weatherlink.com 1.10,2013-01-06 03:55:00,
2013-01-05 23:10:00,13.9,11.0,30.23,West,264,0.0,-999.0,87,-99.99,,,0.00,weatherlink.com 1.10,2013-01-06 04:10:00,
2013-01-05 23:25:00,14.9,12.0,30.22,West,264,0.0,-999.0,88,-99.99,,,0.00,weatherlink.com 1.10,2013-01-06 04:25:00,
2013-01-05 23:40:00,18.0,15.0,30.22,SE,125,1.0,-999.0,88,-99.99,,,0.00,weatherlink.com 1.10,2013-01-06 04:40:00,
2013-01-05 23:55:00,19.9,16.0,30.20,SE,127,0.0,-999.0,85,-99.99,,,0.00,weatherlink.com 1.10,2013-01-06 04:55:00,